sensor_id;sensor_type;location;lat;lon;timestamp;P1;durP1;ratioP1;P2;durP2;ratioP2
26335;SDS011;14047;50.936;4.654;2024-02-15T00:00:13;8.68;;;3.28;;
26335;SDS011;14047;50.936;4.654;2024-02-15T00:02:42;11.27;;;3.78;;
26335;SDS011;14047;50.936;4.654;2024-02-15T00:05:10;9.52;;;3.95;;
26335;SDS011;14047;50.936;4.654;2024-02-15T00:07:37;24.63;;;3.67;;
26335;SDS011;14047;50.936;4.654;2024-02-15T00:10:03;9.63;;;3.90;;
26335;SDS011;14047;50.936;4.654;2024-02-15T00:12:30;12.93;;;3.60;;
26335;SDS011;14047;50.936;4.654;2024-02-15T00:14:56;11.10;;;3.75;;
26335;SDS011;14047;50.936;4.654;2024-02-15T00:17:33;13.02;;;3.15;;
26335;SDS011;14047;50.936;4.654;2024-02-15T00:20:02;10.15;;;3.15;;
26335;SDS011;14047;50.936;4.654;2024-02-15T00:22:35;13.20;;;3.65;;
26335;SDS011;14047;50.936;4.654;2024-02-15T00:25:02;11.00;;;3.70;;
26335;SDS011;14047;50.936;4.654;2024-02-15T00:27:29;13.70;;;3.53;;
26335;SDS011;14047;50.936;4.654;2024-02-15T00:29:58;12.38;;;3.17;;
26335;SDS011;14047;50.936;4.654;2024-02-15T00:32:24;13.52;;;3.45;;
26335;SDS011;14047;50.936;4.654;2024-02-15T00:34:50;13.73;;;3.20;;
26335;SDS011;14047;50.936;4.654;2024-02-15T00:37:16;10.60;;;3.17;;
26335;SDS011;14047;50.936;4.654;2024-02-15T00:39:42;12.10;;;3.25;;
26335;SDS011;14047;50.936;4.654;2024-02-15T00:42:08;12.77;;;3.38;;
26335;SDS011;14047;50.936;4.654;2024-02-15T00:44:34;19.38;;;3.40;;
26335;SDS011;14047;50.936;4.654;2024-02-15T00:47:00;10.25;;;3.20;;
26335;SDS011;14047;50.936;4.654;2024-02-15T00:49:26;10.98;;;3.75;;
26335;SDS011;14047;50.936;4.654;2024-02-15T00:51:53;11.80;;;2.92;;
26335;SDS011;14047;50.936;4.654;2024-02-15T00:54:19;16.05;;;3.42;;
26335;SDS011;14047;50.936;4.654;2024-02-15T00:56:45;12.25;;;2.92;;
26335;SDS011;14047;50.936;4.654;2024-02-15T00:59:11;14.27;;;3.03;;
26335;SDS011;14047;50.936;4.654;2024-02-15T01:01:37;12.07;;;3.00;;
26335;SDS011;14047;50.936;4.654;2024-02-15T01:04:03;14.15;;;3.17;;
26335;SDS011;14047;50.936;4.654;2024-02-15T01:06:30;11.15;;;3.25;;
26335;SDS011;14047;50.936;4.654;2024-02-15T01:08:56;14.43;;;3.20;;
26335;SDS011;14047;50.936;4.654;2024-02-15T01:11:22;12.20;;;3.13;;
26335;SDS011;14047;50.936;4.654;2024-02-15T01:13:49;12.40;;;3.55;;
26335;SDS011;14047;50.936;4.654;2024-02-15T01:16:16;14.90;;;3.38;;
26335;SDS011;14047;50.936;4.654;2024-02-15T01:18:42;8.77;;;3.00;;
26335;SDS011;14047;50.936;4.654;2024-02-15T01:21:08;9.48;;;3.08;;
26335;SDS011;14047;50.936;4.654;2024-02-15T01:23:36;16.92;;;3.13;;
26335;SDS011;14047;50.936;4.654;2024-02-15T01:26:02;11.93;;;2.90;;
26335;SDS011;14047;50.936;4.654;2024-02-15T01:28:28;9.65;;;2.95;;
26335;SDS011;14047;50.936;4.654;2024-02-15T01:30:54;8.88;;;3.10;;
26335;SDS011;14047;50.936;4.654;2024-02-15T01:33:20;12.65;;;2.55;;
26335;SDS011;14047;50.936;4.654;2024-02-15T01:35:46;10.43;;;3.15;;
26335;SDS011;14047;50.936;4.654;2024-02-15T01:38:12;15.48;;;3.00;;
26335;SDS011;14047;50.936;4.654;2024-02-15T01:40:38;12.63;;;2.55;;
26335;SDS011;14047;50.936;4.654;2024-02-15T01:43:04;9.85;;;2.72;;
26335;SDS011;14047;50.936;4.654;2024-02-15T01:45:30;11.07;;;2.45;;
26335;SDS011;14047;50.936;4.654;2024-02-15T01:47:57;9.35;;;2.53;;
26335;SDS011;14047;50.936;4.654;2024-02-15T01:50:23;11.27;;;2.35;;
26335;SDS011;14047;50.936;4.654;2024-02-15T01:52:51;6.53;;;2.65;;
26335;SDS011;14047;50.936;4.654;2024-02-15T01:55:20;8.85;;;2.20;;
26335;SDS011;14047;50.936;4.654;2024-02-15T01:57:47;10.02;;;2.72;;
26335;SDS011;14047;50.936;4.654;2024-02-15T02:00:15;9.20;;;2.90;;
26335;SDS011;14047;50.936;4.654;2024-02-15T02:02:47;12.70;;;2.22;;
26335;SDS011;14047;50.936;4.654;2024-02-15T02:05:14;8.80;;;2.53;;
26335;SDS011;14047;50.936;4.654;2024-02-15T02:07:40;8.05;;;2.40;;
26335;SDS011;14047;50.936;4.654;2024-02-15T02:10:07;8.30;;;2.42;;
26335;SDS011;14047;50.936;4.654;2024-02-15T02:12:36;6.60;;;1.98;;
26335;SDS011;14047;50.936;4.654;2024-02-15T02:15:05;9.32;;;2.20;;
26335;SDS011;14047;50.936;4.654;2024-02-15T02:17:32;13.52;;;2.03;;
26335;SDS011;14047;50.936;4.654;2024-02-15T02:19:59;9.43;;;2.20;;
26335;SDS011;14047;50.936;4.654;2024-02-15T02:22:25;7.47;;;2.63;;
26335;SDS011;14047;50.936;4.654;2024-02-15T02:25:01;11.00;;;2.20;;
26335;SDS011;14047;50.936;4.654;2024-02-15T02:27:35;7.75;;;2.17;;
26335;SDS011;14047;50.936;4.654;2024-02-15T02:30:05;8.10;;;2.53;;
26335;SDS011;14047;50.936;4.654;2024-02-15T02:32:43;7.00;;;1.92;;
26335;SDS011;14047;50.936;4.654;2024-02-15T02:35:09;5.68;;;1.80;;
26335;SDS011;14047;50.936;4.654;2024-02-15T02:37:38;10.13;;;2.33;;
26335;SDS011;14047;50.936;4.654;2024-02-15T02:40:08;7.20;;;2.00;;
26335;SDS011;14047;50.936;4.654;2024-02-15T02:42:51;14.68;;;2.17;;
26335;SDS011;14047;50.936;4.654;2024-02-15T02:45:19;9.23;;;2.47;;
26335;SDS011;14047;50.936;4.654;2024-02-15T02:47:50;8.57;;;2.70;;
26335;SDS011;14047;50.936;4.654;2024-02-15T02:50:17;9.07;;;2.30;;
26335;SDS011;14047;50.936;4.654;2024-02-15T02:52:44;9.18;;;2.13;;
26335;SDS011;14047;50.936;4.654;2024-02-15T02:55:10;10.80;;;1.75;;
26335;SDS011;14047;50.936;4.654;2024-02-15T02:57:37;8.88;;;1.90;;
26335;SDS011;14047;50.936;4.654;2024-02-15T03:00:07;12.18;;;2.10;;
26335;SDS011;14047;50.936;4.654;2024-02-15T03:02:41;9.35;;;2.20;;
26335;SDS011;14047;50.936;4.654;2024-02-15T03:05:11;7.00;;;2.00;;
26335;SDS011;14047;50.936;4.654;2024-02-15T03:07:38;7.50;;;2.10;;
26335;SDS011;14047;50.936;4.654;2024-02-15T03:10:07;11.20;;;2.47;;
26335;SDS011;14047;50.936;4.654;2024-02-15T03:12:35;7.95;;;2.00;;
26335;SDS011;14047;50.936;4.654;2024-02-15T03:15:02;5.10;;;1.88;;
26335;SDS011;14047;50.936;4.654;2024-02-15T03:17:29;10.43;;;2.40;;
26335;SDS011;14047;50.936;4.654;2024-02-15T03:19:59;4.00;;;2.03;;
26335;SDS011;14047;50.936;4.654;2024-02-15T03:22:27;7.03;;;2.28;;
26335;SDS011;14047;50.936;4.654;2024-02-15T03:24:54;7.43;;;1.88;;
26335;SDS011;14047;50.936;4.654;2024-02-15T03:27:20;4.25;;;1.67;;
26335;SDS011;14047;50.936;4.654;2024-02-15T03:29:48;9.48;;;1.60;;
26335;SDS011;14047;50.936;4.654;2024-02-15T03:32:15;9.65;;;2.10;;
26335;SDS011;14047;50.936;4.654;2024-02-15T03:34:42;11.80;;;1.95;;
26335;SDS011;14047;50.936;4.654;2024-02-15T03:37:08;6.40;;;1.60;;
26335;SDS011;14047;50.936;4.654;2024-02-15T03:39:35;3.35;;;1.55;;
26335;SDS011;14047;50.936;4.654;2024-02-15T03:42:00;7.68;;;2.20;;
26335;SDS011;14047;50.936;4.654;2024-02-15T03:44:26;7.55;;;1.98;;
26335;SDS011;14047;50.936;4.654;2024-02-15T03:46:53;3.95;;;1.90;;
26335;SDS011;14047;50.936;4.654;2024-02-15T03:49:19;4.65;;;1.35;;
26335;SDS011;14047;50.936;4.654;2024-02-15T03:51:45;4.97;;;1.35;;
26335;SDS011;14047;50.936;4.654;2024-02-15T03:54:11;11.23;;;1.38;;
26335;SDS011;14047;50.936;4.654;2024-02-15T03:56:50;8.10;;;1.88;;
26335;SDS011;14047;50.936;4.654;2024-02-15T03:59:20;6.10;;;1.50;;
26335;SDS011;14047;50.936;4.654;2024-02-15T04:01:52;7.00;;;1.73;;
26335;SDS011;14047;50.936;4.654;2024-02-15T04:04:19;11.45;;;1.40;;
26335;SDS011;14047;50.936;4.654;2024-02-15T04:06:49;8.60;;;1.60;;
26335;SDS011;14047;50.936;4.654;2024-02-15T04:09:16;6.03;;;1.52;;
26335;SDS011;14047;50.936;4.654;2024-02-15T04:11:46;3.95;;;1.83;;
26335;SDS011;14047;50.936;4.654;2024-02-15T04:14:16;8.98;;;1.80;;
26335;SDS011;14047;50.936;4.654;2024-02-15T04:16:47;6.25;;;1.20;;
26335;SDS011;14047;50.936;4.654;2024-02-15T04:19:13;3.17;;;1.33;;
26335;SDS011;14047;50.936;4.654;2024-02-15T04:21:39;6.88;;;1.90;;
26335;SDS011;14047;50.936;4.654;2024-02-15T04:24:05;3.70;;;1.83;;
26335;SDS011;14047;50.936;4.654;2024-02-15T04:26:32;4.85;;;1.60;;
26335;SDS011;14047;50.936;4.654;2024-02-15T04:28:58;4.85;;;1.58;;
26335;SDS011;14047;50.936;4.654;2024-02-15T04:31:25;8.50;;;1.40;;
26335;SDS011;14047;50.936;4.654;2024-02-15T04:33:54;8.13;;;1.42;;
26335;SDS011;14047;50.936;4.654;2024-02-15T04:36:21;7.45;;;1.73;;
26335;SDS011;14047;50.936;4.654;2024-02-15T04:38:51;4.50;;;1.33;;
26335;SDS011;14047;50.936;4.654;2024-02-15T04:41:17;9.55;;;2.33;;
26335;SDS011;14047;50.936;4.654;2024-02-15T04:43:49;6.07;;;1.30;;
26335;SDS011;14047;50.936;4.654;2024-02-15T04:46:15;6.88;;;1.70;;
26335;SDS011;14047;50.936;4.654;2024-02-15T04:48:41;6.57;;;1.60;;
26335;SDS011;14047;50.936;4.654;2024-02-15T04:51:08;4.25;;;1.30;;
26335;SDS011;14047;50.936;4.654;2024-02-15T04:53:38;6.10;;;1.67;;
26335;SDS011;14047;50.936;4.654;2024-02-15T04:56:05;9.90;;;1.90;;
26335;SDS011;14047;50.936;4.654;2024-02-15T04:58:41;4.55;;;1.40;;
26335;SDS011;14047;50.936;4.654;2024-02-15T05:01:12;6.28;;;1.27;;
26335;SDS011;14047;50.936;4.654;2024-02-15T05:03:38;6.22;;;1.30;;
26335;SDS011;14047;50.936;4.654;2024-02-15T05:06:04;6.25;;;1.20;;
26335;SDS011;14047;50.936;4.654;2024-02-15T05:08:30;11.48;;;1.52;;
26335;SDS011;14047;50.936;4.654;2024-02-15T05:10:57;3.58;;;1.45;;
26335;SDS011;14047;50.936;4.654;2024-02-15T05:13:26;8.48;;;1.88;;
26335;SDS011;14047;50.936;4.654;2024-02-15T05:15:52;4.35;;;1.38;;
26335;SDS011;14047;50.936;4.654;2024-02-15T05:18:18;6.05;;;1.40;;
26335;SDS011;14047;50.936;4.654;2024-02-15T05:20:44;4.47;;;1.60;;
26335;SDS011;14047;50.936;4.654;2024-02-15T05:23:10;4.82;;;1.60;;
26335;SDS011;14047;50.936;4.654;2024-02-15T05:25:37;5.00;;;1.17;;
26335;SDS011;14047;50.936;4.654;2024-02-15T05:28:03;4.10;;;1.42;;
26335;SDS011;14047;50.936;4.654;2024-02-15T05:30:31;4.28;;;1.33;;
26335;SDS011;14047;50.936;4.654;2024-02-15T05:32:58;4.80;;;1.60;;
26335;SDS011;14047;50.936;4.654;2024-02-15T05:35:25;5.05;;;1.45;;
26335;SDS011;14047;50.936;4.654;2024-02-15T05:37:52;5.47;;;1.45;;
26335;SDS011;14047;50.936;4.654;2024-02-15T05:40:18;3.17;;;1.35;;
26335;SDS011;14047;50.936;4.654;2024-02-15T05:42:45;5.38;;;1.35;;
26335;SDS011;14047;50.936;4.654;2024-02-15T05:45:15;5.50;;;1.10;;
26335;SDS011;14047;50.936;4.654;2024-02-15T05:47:58;6.57;;;1.27;;
26335;SDS011;14047;50.936;4.654;2024-02-15T05:50:24;8.07;;;1.58;;
26335;SDS011;14047;50.936;4.654;2024-02-15T05:52:53;3.50;;;1.25;;
26335;SDS011;14047;50.936;4.654;2024-02-15T05:55:20;3.70;;;1.30;;
26335;SDS011;14047;50.936;4.654;2024-02-15T05:57:46;9.73;;;1.73;;
26335;SDS011;14047;50.936;4.654;2024-02-15T06:00:12;7.32;;;1.48;;
26335;SDS011;14047;50.936;4.654;2024-02-15T06:02:40;5.65;;;1.40;;
26335;SDS011;14047;50.936;4.654;2024-02-15T06:05:06;7.97;;;1.73;;
26335;SDS011;14047;50.936;4.654;2024-02-15T06:07:32;5.32;;;1.88;;
26335;SDS011;14047;50.936;4.654;2024-02-15T06:09:59;6.95;;;1.88;;
26335;SDS011;14047;50.936;4.654;2024-02-15T06:12:29;7.45;;;1.50;;
26335;SDS011;14047;50.936;4.654;2024-02-15T06:14:55;9.50;;;1.88;;
26335;SDS011;14047;50.936;4.654;2024-02-15T06:17:21;12.57;;;2.10;;
26335;SDS011;14047;50.936;4.654;2024-02-15T06:19:47;10.43;;;2.60;;
26335;SDS011;14047;50.936;4.654;2024-02-15T06:22:13;8.50;;;2.83;;
26335;SDS011;14047;50.936;4.654;2024-02-15T06:24:40;6.47;;;2.03;;
26335;SDS011;14047;50.936;4.654;2024-02-15T06:27:06;9.57;;;3.20;;
26335;SDS011;14047;50.936;4.654;2024-02-15T06:29:32;9.80;;;2.53;;
26335;SDS011;14047;50.936;4.654;2024-02-15T06:32:24;11.40;;;2.92;;
26335;SDS011;14047;50.936;4.654;2024-02-15T06:35:09;9.65;;;2.95;;
26335;SDS011;14047;50.936;4.654;2024-02-15T06:37:53;9.45;;;2.88;;
26335;SDS011;14047;50.936;4.654;2024-02-15T06:40:38;8.38;;;2.80;;
26335;SDS011;14047;50.936;4.654;2024-02-15T06:43:04;8.07;;;2.72;;
26335;SDS011;14047;50.936;4.654;2024-02-15T06:45:30;11.18;;;3.08;;
26335;SDS011;14047;50.936;4.654;2024-02-15T06:47:57;8.65;;;2.88;;
26335;SDS011;14047;50.936;4.654;2024-02-15T06:50:23;10.20;;;2.63;;
26335;SDS011;14047;50.936;4.654;2024-02-15T06:52:51;11.88;;;3.03;;
26335;SDS011;14047;50.936;4.654;2024-02-15T06:55:17;10.18;;;2.55;;
26335;SDS011;14047;50.936;4.654;2024-02-15T06:57:44;5.10;;;2.00;;
26335;SDS011;14047;50.936;4.654;2024-02-15T07:00:11;9.63;;;2.50;;
26335;SDS011;14047;50.936;4.654;2024-02-15T07:02:40;11.18;;;2.78;;
26335;SDS011;14047;50.936;4.654;2024-02-15T07:05:07;9.55;;;1.98;;
26335;SDS011;14047;50.936;4.654;2024-02-15T07:07:33;9.10;;;2.30;;
26335;SDS011;14047;50.936;4.654;2024-02-15T07:09:59;8.00;;;2.25;;
26335;SDS011;14047;50.936;4.654;2024-02-15T07:12:28;7.75;;;2.00;;
26335;SDS011;14047;50.936;4.654;2024-02-15T07:14:54;9.13;;;1.60;;
26335;SDS011;14047;50.936;4.654;2024-02-15T07:17:21;6.72;;;1.90;;
26335;SDS011;14047;50.936;4.654;2024-02-15T07:19:47;6.78;;;2.13;;
26335;SDS011;14047;50.936;4.654;2024-02-15T07:22:14;4.25;;;1.77;;
26335;SDS011;14047;50.936;4.654;2024-02-15T07:24:41;6.97;;;1.88;;
26335;SDS011;14047;50.936;4.654;2024-02-15T07:27:07;7.28;;;2.15;;
26335;SDS011;14047;50.936;4.654;2024-02-15T07:29:35;12.68;;;2.17;;
26335;SDS011;14047;50.936;4.654;2024-02-15T07:32:03;4.63;;;2.00;;
26335;SDS011;14047;50.936;4.654;2024-02-15T07:34:33;7.68;;;1.98;;
26335;SDS011;14047;50.936;4.654;2024-02-15T07:36:59;5.78;;;1.85;;
26335;SDS011;14047;50.936;4.654;2024-02-15T07:39:27;4.28;;;1.60;;
26335;SDS011;14047;50.936;4.654;2024-02-15T07:41:53;4.65;;;1.88;;
26335;SDS011;14047;50.936;4.654;2024-02-15T07:44:20;9.57;;;1.60;;
26335;SDS011;14047;50.936;4.654;2024-02-15T07:46:47;5.47;;;1.48;;
26335;SDS011;14047;50.936;4.654;2024-02-15T07:49:13;8.93;;;1.67;;
26335;SDS011;14047;50.936;4.654;2024-02-15T07:51:39;7.22;;;1.85;;
26335;SDS011;14047;50.936;4.654;2024-02-15T07:54:05;9.48;;;2.00;;
26335;SDS011;14047;50.936;4.654;2024-02-15T07:56:31;3.22;;;1.30;;
26335;SDS011;14047;50.936;4.654;2024-02-15T07:58:57;3.65;;;1.42;;
26335;SDS011;14047;50.936;4.654;2024-02-15T08:01:23;4.45;;;1.58;;
26335;SDS011;14047;50.936;4.654;2024-02-15T08:03:50;4.32;;;1.30;;
26335;SDS011;14047;50.936;4.654;2024-02-15T08:06:16;5.65;;;1.02;;
26335;SDS011;14047;50.936;4.654;2024-02-15T08:08:42;7.03;;;1.52;;
26335;SDS011;14047;50.936;4.654;2024-02-15T08:11:15;3.97;;;1.55;;
26335;SDS011;14047;50.936;4.654;2024-02-15T08:13:49;5.72;;;1.50;;
26335;SDS011;14047;50.936;4.654;2024-02-15T08:16:17;4.30;;;1.15;;
26335;SDS011;14047;50.936;4.654;2024-02-15T08:18:44;5.00;;;1.42;;
26335;SDS011;14047;50.936;4.654;2024-02-15T08:21:13;5.53;;;1.40;;
26335;SDS011;14047;50.936;4.654;2024-02-15T08:23:40;9.75;;;1.35;;
26335;SDS011;14047;50.936;4.654;2024-02-15T08:26:06;3.67;;;1.38;;
26335;SDS011;14047;50.936;4.654;2024-02-15T08:28:32;2.30;;;1.20;;
26335;SDS011;14047;50.936;4.654;2024-02-15T08:30:57;4.95;;;1.63;;
26335;SDS011;14047;50.936;4.654;2024-02-15T08:33:24;5.18;;;1.38;;
26335;SDS011;14047;50.936;4.654;2024-02-15T08:35:53;5.00;;;1.90;;
26335;SDS011;14047;50.936;4.654;2024-02-15T08:38:21;3.15;;;0.70;;
26335;SDS011;14047;50.936;4.654;2024-02-15T08:40:47;4.93;;;1.05;;
26335;SDS011;14047;50.936;4.654;2024-02-15T08:43:14;6.85;;;1.48;;
26335;SDS011;14047;50.936;4.654;2024-02-15T08:45:43;4.15;;;1.13;;
26335;SDS011;14047;50.936;4.654;2024-02-15T08:48:09;7.35;;;1.17;;
26335;SDS011;14047;50.936;4.654;2024-02-15T08:50:35;5.90;;;1.05;;
26335;SDS011;14047;50.936;4.654;2024-02-15T08:53:01;5.00;;;1.23;;
26335;SDS011;14047;50.936;4.654;2024-02-15T08:55:31;2.85;;;1.00;;
26335;SDS011;14047;50.936;4.654;2024-02-15T08:57:57;4.93;;;1.27;;
26335;SDS011;14047;50.936;4.654;2024-02-15T09:00:25;4.22;;;1.30;;
26335;SDS011;14047;50.936;4.654;2024-02-15T09:02:52;3.03;;;1.55;;
26335;SDS011;14047;50.936;4.654;2024-02-15T09:05:18;4.90;;;1.08;;
26335;SDS011;14047;50.936;4.654;2024-02-15T09:07:46;3.17;;;1.10;;
26335;SDS011;14047;50.936;4.654;2024-02-15T09:10:13;3.17;;;0.82;;
26335;SDS011;14047;50.936;4.654;2024-02-15T09:12:42;2.88;;;1.02;;
26335;SDS011;14047;50.936;4.654;2024-02-15T09:15:10;3.72;;;1.00;;
26335;SDS011;14047;50.936;4.654;2024-02-15T09:17:36;2.22;;;0.93;;
26335;SDS011;14047;50.936;4.654;2024-02-15T09:20:07;4.55;;;1.27;;
26335;SDS011;14047;50.936;4.654;2024-02-15T09:22:34;4.90;;;0.90;;
26335;SDS011;14047;50.936;4.654;2024-02-15T09:25:03;5.85;;;1.20;;
26335;SDS011;14047;50.936;4.654;2024-02-15T09:27:29;6.72;;;0.98;;
26335;SDS011;14047;50.936;4.654;2024-02-15T09:29:55;4.78;;;1.10;;
26335;SDS011;14047;50.936;4.654;2024-02-15T09:32:21;3.53;;;0.90;;
26335;SDS011;14047;50.936;4.654;2024-02-15T09:34:47;4.05;;;1.10;;
26335;SDS011;14047;50.936;4.654;2024-02-15T09:37:15;8.50;;;1.50;;
26335;SDS011;14047;50.936;4.654;2024-02-15T09:39:43;2.78;;;1.20;;
26335;SDS011;14047;50.936;4.654;2024-02-15T09:42:09;3.78;;;0.90;;
26335;SDS011;14047;50.936;4.654;2024-02-15T09:44:35;3.03;;;0.98;;
26335;SDS011;14047;50.936;4.654;2024-02-15T09:47:03;7.07;;;1.20;;
26335;SDS011;14047;50.936;4.654;2024-02-15T09:49:37;4.90;;;1.45;;
26335;SDS011;14047;50.936;4.654;2024-02-15T09:52:08;6.53;;;1.75;;
26335;SDS011;14047;50.936;4.654;2024-02-15T09:54:41;5.95;;;1.90;;
26335;SDS011;14047;50.936;4.654;2024-02-15T09:57:11;5.18;;;2.10;;
26335;SDS011;14047;50.936;4.654;2024-02-15T09:59:37;8.57;;;2.85;;
26335;SDS011;14047;50.936;4.654;2024-02-15T10:02:05;8.05;;;2.83;;
26335;SDS011;14047;50.936;4.654;2024-02-15T10:04:39;9.55;;;2.65;;
26335;SDS011;14047;50.936;4.654;2024-02-15T10:07:05;10.20;;;3.28;;
26335;SDS011;14047;50.936;4.654;2024-02-15T10:09:34;9.15;;;2.72;;
26335;SDS011;14047;50.936;4.654;2024-02-15T10:12:02;7.20;;;2.70;;
26335;SDS011;14047;50.936;4.654;2024-02-15T10:14:32;4.95;;;2.33;;
26335;SDS011;14047;50.936;4.654;2024-02-15T10:17:07;12.32;;;2.30;;
26335;SDS011;14047;50.936;4.654;2024-02-15T10:19:37;7.32;;;2.35;;
26335;SDS011;14047;50.936;4.654;2024-02-15T10:22:07;6.53;;;2.08;;
26335;SDS011;14047;50.936;4.654;2024-02-15T10:24:34;9.57;;;2.00;;
26335;SDS011;14047;50.936;4.654;2024-02-15T10:27:02;4.30;;;2.05;;
26335;SDS011;14047;50.936;4.654;2024-02-15T10:29:33;4.60;;;1.52;;
26335;SDS011;14047;50.936;4.654;2024-02-15T10:32:00;4.15;;;1.27;;
26335;SDS011;14047;50.936;4.654;2024-02-15T10:34:27;6.40;;;1.50;;
26335;SDS011;14047;50.936;4.654;2024-02-15T10:36:54;4.82;;;1.70;;
26335;SDS011;14047;50.936;4.654;2024-02-15T10:39:23;2.45;;;1.30;;
26335;SDS011;14047;50.936;4.654;2024-02-15T10:41:50;4.28;;;1.10;;
26335;SDS011;14047;50.936;4.654;2024-02-15T10:44:21;2.25;;;1.17;;
26335;SDS011;14047;50.936;4.654;2024-02-15T10:46:50;4.00;;;1.20;;
26335;SDS011;14047;50.936;4.654;2024-02-15T10:49:18;5.28;;;1.23;;
26335;SDS011;14047;50.936;4.654;2024-02-15T10:51:50;2.97;;;0.93;;
26335;SDS011;14047;50.936;4.654;2024-02-15T10:54:29;4.90;;;1.75;;
26335;SDS011;14047;50.936;4.654;2024-02-15T10:57:20;9.70;;;1.33;;
26335;SDS011;14047;50.936;4.654;2024-02-15T10:59:55;5.30;;;1.40;;
26335;SDS011;14047;50.936;4.654;2024-02-15T11:02:29;2.97;;;1.10;;
26335;SDS011;14047;50.936;4.654;2024-02-15T11:05:05;3.67;;;1.23;;
26335;SDS011;14047;50.936;4.654;2024-02-15T11:07:34;3.45;;;1.02;;
26335;SDS011;14047;50.936;4.654;2024-02-15T11:10:00;6.78;;;1.38;;
26335;SDS011;14047;50.936;4.654;2024-02-15T11:12:28;3.88;;;1.02;;
26335;SDS011;14047;50.936;4.654;2024-02-15T11:14:56;1.98;;;0.90;;
26335;SDS011;14047;50.936;4.654;2024-02-15T11:20:10;1.98;;;0.90;;
26335;SDS011;14047;50.936;4.654;2024-02-15T11:23:02;2.22;;;1.20;;
26335;SDS011;14047;50.936;4.654;2024-02-15T11:25:38;3.85;;;1.20;;
26335;SDS011;14047;50.936;4.654;2024-02-15T11:30:47;3.72;;;1.08;;
26335;SDS011;14047;50.936;4.654;2024-02-15T11:38:35;2.33;;;0.90;;
26335;SDS011;14047;50.936;4.654;2024-02-15T11:41:02;4.82;;;1.40;;
26335;SDS011;14047;50.936;4.654;2024-02-15T11:46:15;2.25;;;0.82;;
26335;SDS011;14047;50.936;4.654;2024-02-15T11:48:45;3.42;;;1.40;;
26335;SDS011;14047;50.936;4.654;2024-02-15T11:51:27;5.88;;;1.27;;
26335;SDS011;14047;50.936;4.654;2024-02-15T11:54:05;5.18;;;1.20;;
26335;SDS011;14047;50.936;4.654;2024-02-15T11:59:17;3.00;;;0.90;;
26335;SDS011;14047;50.936;4.654;2024-02-15T12:01:57;2.13;;;0.90;;
26335;SDS011;14047;50.936;4.654;2024-02-15T12:04:42;3.35;;;0.98;;
26335;SDS011;14047;50.936;4.654;2024-02-15T12:07:28;2.47;;;0.80;;
26335;SDS011;14047;50.936;4.654;2024-02-15T12:10:19;1.70;;;0.73;;
26335;SDS011;14047;50.936;4.654;2024-02-15T12:13:03;2.25;;;0.82;;
26335;SDS011;14047;50.936;4.654;2024-02-15T12:15:59;2.05;;;0.60;;
26335;SDS011;14047;50.936;4.654;2024-02-15T12:18:44;1.73;;;0.90;;
26335;SDS011;14047;50.936;4.654;2024-02-15T12:21:13;1.60;;;0.60;;
26335;SDS011;14047;50.936;4.654;2024-02-15T12:23:42;3.90;;;0.68;;
26335;SDS011;14047;50.936;4.654;2024-02-15T12:26:10;3.83;;;0.90;;
26335;SDS011;14047;50.936;4.654;2024-02-15T12:28:40;3.65;;;0.95;;
26335;SDS011;14047;50.936;4.654;2024-02-15T12:31:08;3.42;;;1.10;;
26335;SDS011;14047;50.936;4.654;2024-02-15T12:33:35;5.20;;;0.90;;
26335;SDS011;14047;50.936;4.654;2024-02-15T12:36:06;2.28;;;0.70;;
26335;SDS011;14047;50.936;4.654;2024-02-15T12:38:33;1.30;;;0.68;;
26335;SDS011;14047;50.936;4.654;2024-02-15T12:41:04;2.20;;;1.25;;
26335;SDS011;14047;50.936;4.654;2024-02-15T12:43:44;1.02;;;0.63;;
26335;SDS011;14047;50.936;4.654;2024-02-15T12:46:10;3.70;;;0.90;;
26335;SDS011;14047;50.936;4.654;2024-02-15T12:48:36;1.08;;;0.73;;
26335;SDS011;14047;50.936;4.654;2024-02-15T12:51:12;2.42;;;1.00;;
26335;SDS011;14047;50.936;4.654;2024-02-15T12:53:42;2.13;;;0.65;;
26335;SDS011;14047;50.936;4.654;2024-02-15T12:56:08;2.55;;;0.77;;
26335;SDS011;14047;50.936;4.654;2024-02-15T12:58:36;3.53;;;0.85;;
26335;SDS011;14047;50.936;4.654;2024-02-15T13:01:04;3.67;;;1.38;;
26335;SDS011;14047;50.936;4.654;2024-02-15T13:03:30;2.78;;;1.30;;
26335;SDS011;14047;50.936;4.654;2024-02-15T13:05:56;4.97;;;0.80;;
26335;SDS011;14047;50.936;4.654;2024-02-15T13:08:22;4.25;;;0.70;;
26335;SDS011;14047;50.936;4.654;2024-02-15T13:10:48;1.65;;;0.50;;
26335;SDS011;14047;50.936;4.654;2024-02-15T13:13:15;3.38;;;0.68;;
26335;SDS011;14047;50.936;4.654;2024-02-15T13:15:42;0.70;;;0.47;;
26335;SDS011;14047;50.936;4.654;2024-02-15T13:18:09;3.85;;;0.80;;
26335;SDS011;14047;50.936;4.654;2024-02-15T13:20:39;4.13;;;0.80;;
26335;SDS011;14047;50.936;4.654;2024-02-15T13:23:05;2.65;;;0.60;;
26335;SDS011;14047;50.936;4.654;2024-02-15T13:25:43;2.88;;;0.70;;
26335;SDS011;14047;50.936;4.654;2024-02-15T13:28:09;2.22;;;0.70;;
26335;SDS011;14047;50.936;4.654;2024-02-15T13:30:38;1.20;;;0.55;;
26335;SDS011;14047;50.936;4.654;2024-02-15T13:33:04;3.47;;;0.60;;
26335;SDS011;14047;50.936;4.654;2024-02-15T13:35:31;1.00;;;0.45;;
26335;SDS011;14047;50.936;4.654;2024-02-15T13:37:57;2.33;;;0.60;;
26335;SDS011;14047;50.936;4.654;2024-02-15T13:40:24;2.30;;;0.90;;
26335;SDS011;14047;50.936;4.654;2024-02-15T13:42:53;3.20;;;0.70;;
26335;SDS011;14047;50.936;4.654;2024-02-15T13:45:28;2.75;;;0.68;;
26335;SDS011;14047;50.936;4.654;2024-02-15T13:47:57;5.57;;;0.85;;
26335;SDS011;14047;50.936;4.654;2024-02-15T13:50:28;2.33;;;0.60;;
26335;SDS011;14047;50.936;4.654;2024-02-15T13:52:54;1.02;;;0.70;;
26335;SDS011;14047;50.936;4.654;2024-02-15T13:55:20;1.33;;;0.60;;
26335;SDS011;14047;50.936;4.654;2024-02-15T13:57:47;2.45;;;0.80;;
26335;SDS011;14047;50.936;4.654;2024-02-15T14:00:17;1.25;;;0.63;;
26335;SDS011;14047;50.936;4.654;2024-02-15T14:02:50;1.40;;;0.57;;
26335;SDS011;14047;50.936;4.654;2024-02-15T14:05:18;3.15;;;0.63;;
26335;SDS011;14047;50.936;4.654;2024-02-15T14:07:46;3.17;;;0.70;;
26335;SDS011;14047;50.936;4.654;2024-02-15T14:10:14;1.92;;;0.63;;
26335;SDS011;14047;50.936;4.654;2024-02-15T14:12:40;3.03;;;0.68;;
26335;SDS011;14047;50.936;4.654;2024-02-15T14:15:06;1.45;;;0.65;;
26335;SDS011;14047;50.936;4.654;2024-02-15T14:17:35;2.20;;;0.60;;
26335;SDS011;14047;50.936;4.654;2024-02-15T14:20:01;3.50;;;0.80;;
26335;SDS011;14047;50.936;4.654;2024-02-15T14:22:33;0.82;;;0.60;;
26335;SDS011;14047;50.936;4.654;2024-02-15T14:24:59;1.20;;;0.57;;
26335;SDS011;14047;50.936;4.654;2024-02-15T14:27:25;2.13;;;0.70;;
26335;SDS011;14047;50.936;4.654;2024-02-15T14:29:51;3.85;;;0.70;;
26335;SDS011;14047;50.936;4.654;2024-02-15T14:32:35;4.53;;;0.98;;
26335;SDS011;14047;50.936;4.654;2024-02-15T14:35:20;2.90;;;0.80;;
26335;SDS011;14047;50.936;4.654;2024-02-15T14:37:46;1.73;;;0.57;;
26335;SDS011;14047;50.936;4.654;2024-02-15T14:40:12;1.67;;;0.70;;
26335;SDS011;14047;50.936;4.654;2024-02-15T14:42:42;2.85;;;0.70;;
26335;SDS011;14047;50.936;4.654;2024-02-15T14:45:11;2.15;;;0.47;;
26335;SDS011;14047;50.936;4.654;2024-02-15T14:47:37;2.38;;;0.70;;
26335;SDS011;14047;50.936;4.654;2024-02-15T14:50:06;2.88;;;0.60;;
26335;SDS011;14047;50.936;4.654;2024-02-15T14:52:36;5.53;;;0.68;;
26335;SDS011;14047;50.936;4.654;2024-02-15T14:55:03;4.07;;;0.63;;
26335;SDS011;14047;50.936;4.654;2024-02-15T14:57:36;2.95;;;0.65;;
26335;SDS011;14047;50.936;4.654;2024-02-15T15:00:06;2.03;;;0.93;;
26335;SDS011;14047;50.936;4.654;2024-02-15T15:02:42;2.08;;;0.70;;
26335;SDS011;14047;50.936;4.654;2024-02-15T15:05:09;1.83;;;0.55;;
26335;SDS011;14047;50.936;4.654;2024-02-15T15:07:54;2.85;;;0.80;;
26335;SDS011;14047;50.936;4.654;2024-02-15T15:10:38;1.70;;;0.70;;